createdAt,value
2022-11-17T00:02:11.004Z,3.63
2022-11-17T00:04:38.657Z,3.38
2022-11-17T00:07:06.311Z,3.53
2022-11-17T00:09:33.906Z,3.47
2022-11-17T00:12:22.489Z,2.92
2022-11-17T00:14:51.913Z,3.30
2022-11-17T00:17:19.505Z,3.20
2022-11-17T00:20:04.682Z,3.30
2022-11-17T00:22:32.776Z,3.53
2022-11-17T00:25:00.297Z,3.83
2022-11-17T00:27:27.834Z,3.90
2022-11-17T00:29:56.954Z,3.75
2022-11-17T00:32:42.267Z,3.63
2022-11-17T00:35:09.837Z,3.85
2022-11-17T00:38:00.159Z,3.30
2022-11-17T00:40:27.889Z,3.95
2022-11-17T00:42:55.457Z,3.60
2022-11-17T00:45:24.327Z,3.75
2022-11-17T00:47:51.852Z,3.92
2022-11-17T00:50:19.560Z,3.60
2022-11-17T00:52:47.102Z,4.72
2022-11-17T00:55:14.864Z,4.68
2022-11-17T00:57:42.508Z,5.55
2022-11-17T01:00:11.006Z,4.28
2022-11-17T01:02:39.946Z,4.68
2022-11-17T01:05:07.972Z,4.68
2022-11-17T01:07:36.080Z,4.75
2022-11-17T01:10:03.895Z,4.68
2022-11-17T01:12:31.467Z,5.05
2022-11-17T01:14:59.053Z,4.50
2022-11-17T01:17:26.692Z,4.68
2022-11-17T01:19:55.685Z,4.35
2022-11-17T01:22:23.259Z,4.88
2022-11-17T01:24:50.789Z,4.72
2022-11-17T01:27:18.467Z,5.00
2022-11-17T01:29:46.099Z,5.40
2022-11-17T01:32:13.663Z,4.93
2022-11-17T01:34:41.296Z,5.22
2022-11-17T01:37:22.422Z,4.93
2022-11-17T01:39:50.624Z,5.20
2022-11-17T01:42:20.314Z,5.32
2022-11-17T01:44:55.403Z,5.45
2022-11-17T01:47:28.036Z,5.35
2022-11-17T01:49:59.809Z,5.45
2022-11-17T01:52:30.591Z,5.35
2022-11-17T01:54:59.549Z,4.88
2022-11-17T01:57:32.503Z,5.63
2022-11-17T02:00:04.718Z,5.60
2022-11-17T02:02:34.069Z,5.38
2022-11-17T02:05:07.138Z,5.60
2022-11-17T02:07:39.227Z,5.80
2022-11-17T02:10:07.989Z,6.45
2022-11-17T02:12:37.304Z,6.18
2022-11-17T02:15:05.907Z,5.13
2022-11-17T02:17:37.400Z,6.22
2022-11-17T02:20:09.995Z,5.63
2022-11-17T02:23:15.171Z,5.47
2022-11-17T02:26:01.128Z,5.78
2022-11-17T02:28:32.440Z,5.70
2022-11-17T02:31:13.617Z,5.53
2022-11-17T02:33:50.179Z,5.40
2022-11-17T02:36:21.845Z,6.32
2022-11-17T02:38:57.373Z,5.30
2022-11-17T02:41:30.520Z,5.70
2022-11-17T02:44:06.626Z,5.57
2022-11-17T02:46:46.608Z,5.68
2022-11-17T02:49:22.238Z,5.82
2022-11-17T02:51:55.013Z,4.88
2022-11-17T02:54:30.793Z,5.55
2022-11-17T02:56:58.731Z,5.53
2022-11-17T02:59:32.235Z,5.80
2022-11-17T03:02:15.595Z,5.70
2022-11-17T03:04:49.871Z,5.85
2022-11-17T03:07:33.003Z,5.70
2022-11-17T03:10:09.245Z,5.43
2022-11-17T03:12:45.991Z,5.55
2022-11-17T03:15:24.403Z,6.38
2022-11-17T03:18:00.162Z,5.38
2022-11-17T03:20:34.854Z,5.65
2022-11-17T03:23:08.143Z,5.10
2022-11-17T03:25:39.064Z,5.35
2022-11-17T03:28:09.694Z,5.57
2022-11-17T03:30:42.231Z,5.65
2022-11-17T03:33:15.205Z,5.50
2022-11-17T03:35:50.660Z,5.20
2022-11-17T03:38:21.538Z,5.10
2022-11-17T03:40:52.374Z,5.85
2022-11-17T03:43:21.719Z,5.15
2022-11-17T03:45:54.214Z,5.53
2022-11-17T03:48:28.020Z,4.82
2022-11-17T03:51:00.776Z,5.93
2022-11-17T03:53:28.353Z,5.68
2022-11-17T03:56:03.013Z,5.43
2022-11-17T03:58:33.940Z,5.97
2022-11-17T04:01:05.500Z,4.95
2022-11-17T04:03:34.413Z,4.90
2022-11-17T04:06:02.710Z,4.70
2022-11-17T04:08:30.811Z,5.50
2022-11-17T04:11:16.301Z,5.28
2022-11-17T04:14:07.104Z,5.03
2022-11-17T04:16:35.972Z,5.00
2022-11-17T04:19:03.600Z,5.07
2022-11-17T04:21:31.245Z,4.95
2022-11-17T04:23:58.786Z,5.05
2022-11-17T04:26:44.319Z,4.93
2022-11-17T04:29:11.910Z,6.75
2022-11-17T04:31:40.862Z,5.18
2022-11-17T04:34:08.373Z,5.13
2022-11-17T04:36:37.771Z,5.90
2022-11-17T04:39:05.469Z,6.03
2022-11-17T04:41:52.660Z,4.63
2022-11-17T04:44:21.858Z,5.53
2022-11-17T04:46:51.339Z,5.30
2022-11-17T04:49:20.247Z,5.07
2022-11-17T04:51:48.108Z,4.28
2022-11-17T04:54:17.538Z,5.00
2022-11-17T04:56:45.803Z,6.30
2022-11-17T04:59:13.571Z,6.20
2022-11-17T05:01:41.174Z,5.18
2022-11-17T05:04:11.641Z,5.28
2022-11-17T05:06:41.111Z,5.90
2022-11-17T05:09:10.703Z,5.93
2022-11-17T05:11:56.039Z,5.28
2022-11-17T05:14:25.867Z,5.60
2022-11-17T05:17:09.588Z,5.53
2022-11-17T05:19:41.646Z,5.75
2022-11-17T05:22:24.342Z,5.78
2022-11-17T05:24:52.037Z,6.32
2022-11-17T05:27:19.767Z,6.03
2022-11-17T05:29:47.381Z,5.57
2022-11-17T05:32:15.067Z,6.13
2022-11-17T05:34:44.037Z,6.15
2022-11-17T05:37:11.693Z,7.00
2022-11-17T05:39:39.440Z,6.68
2022-11-17T05:42:07.181Z,6.15
2022-11-17T05:44:34.786Z,6.57
2022-11-17T05:47:02.457Z,7.05
2022-11-17T05:49:30.291Z,5.40
2022-11-17T05:51:59.340Z,5.68
2022-11-17T05:54:27.585Z,6.32
2022-11-17T05:57:00.903Z,6.47
2022-11-17T05:59:31.642Z,6.47
2022-11-17T06:02:03.170Z,6.22
2022-11-17T06:04:31.846Z,6.82
2022-11-17T06:07:02.039Z,6.25
2022-11-17T06:09:32.697Z,6.28
2022-11-17T06:12:05.474Z,6.28
2022-11-17T06:14:33.638Z,6.78
2022-11-17T06:17:03.948Z,7.03
2022-11-17T06:19:37.185Z,6.70
2022-11-17T06:22:14.022Z,6.63
2022-11-17T06:24:43.905Z,6.72
2022-11-17T06:27:12.167Z,7.13
2022-11-17T06:29:44.220Z,7.20
2022-11-17T06:32:13.548Z,7.45
2022-11-17T06:34:41.507Z,7.10
2022-11-17T06:37:11.430Z,7.15
2022-11-17T06:39:41.719Z,6.90
2022-11-17T06:42:09.352Z,6.72
2022-11-17T06:44:36.892Z,6.85
2022-11-17T06:47:04.694Z,7.43
2022-11-17T06:49:32.217Z,6.97
2022-11-17T06:51:59.737Z,7.53
2022-11-17T06:54:28.756Z,7.18
2022-11-17T06:56:56.285Z,6.63
2022-11-17T06:59:23.839Z,7.20
2022-11-17T07:01:51.581Z,7.22
2022-11-17T07:04:19.285Z,7.43
2022-11-17T07:06:46.908Z,6.65
2022-11-17T07:09:14.967Z,7.00
2022-11-17T07:11:43.969Z,7.97
2022-11-17T07:14:11.500Z,7.22
2022-11-17T07:16:39.429Z,7.07
2022-11-17T07:19:08.286Z,7.65
2022-11-17T07:21:35.845Z,7.60
2022-11-17T07:24:03.655Z,7.43
2022-11-17T07:26:31.343Z,6.68
2022-11-17T07:29:00.267Z,6.57
2022-11-17T07:31:27.893Z,7.15
2022-11-17T07:33:55.490Z,6.75
2022-11-17T07:36:23.120Z,7.05
2022-11-17T07:38:50.656Z,6.70
2022-11-17T07:41:18.251Z,7.00
2022-11-17T07:43:45.841Z,6.85
2022-11-17T07:46:21.598Z,7.18
2022-11-17T07:48:49.304Z,7.07
2022-11-17T07:51:17.448Z,7.10
2022-11-17T07:53:45.070Z,7.13
2022-11-17T07:56:12.957Z,6.97
2022-11-17T07:58:41.085Z,7.10
2022-11-17T08:01:10.553Z,7.20
2022-11-17T08:03:39.726Z,7.35
2022-11-17T08:06:09.273Z,7.18
2022-11-17T08:08:37.869Z,6.93
2022-11-17T08:11:07.133Z,6.85
2022-11-17T08:13:35.229Z,7.18
2022-11-17T08:16:06.320Z,7.38
2022-11-17T08:18:34.863Z,8.45
2022-11-17T08:21:05.664Z,7.72
2022-11-17T08:23:34.076Z,7.82
2022-11-17T08:26:03.481Z,6.97
2022-11-17T08:28:31.215Z,7.10
2022-11-17T08:31:01.363Z,6.50
2022-11-17T08:33:28.903Z,7.03
2022-11-17T08:35:58.011Z,9.63
2022-11-17T08:38:29.033Z,7.00
2022-11-17T08:40:56.850Z,7.10
2022-11-17T08:43:24.639Z,7.47
2022-11-17T08:45:52.331Z,7.10
2022-11-17T08:48:19.995Z,7.65
2022-11-17T08:50:47.801Z,7.82
2022-11-17T08:53:16.854Z,7.43
2022-11-17T08:55:46.287Z,7.55
2022-11-17T08:58:14.252Z,8.43
2022-11-17T09:00:42.846Z,7.07
2022-11-17T09:03:12.076Z,7.90
2022-11-17T09:05:40.909Z,7.50
2022-11-17T09:08:43.163Z,7.45
2022-11-17T09:10:59.093Z,7.80
2022-11-17T09:13:26.757Z,7.30
2022-11-17T09:15:54.305Z,7.65
2022-11-17T09:18:21.932Z,7.55
2022-11-17T09:20:49.501Z,7.30
2022-11-17T09:23:17.054Z,8.23
2022-11-17T09:25:44.643Z,7.70
2022-11-17T09:28:13.632Z,7.55
2022-11-17T09:30:41.238Z,7.63
2022-11-17T09:33:08.837Z,7.75
2022-11-17T09:35:36.373Z,7.53
2022-11-17T09:38:03.952Z,8.00
2022-11-17T09:40:37.532Z,7.18
2022-11-17T09:43:09.611Z,8.10
2022-11-17T09:45:40.026Z,7.82
2022-11-17T09:48:39.409Z,7.55
2022-11-17T09:51:03.630Z,8.32
2022-11-17T09:53:41.694Z,8.68
2022-11-17T09:56:13.158Z,7.57
2022-11-17T09:58:45.923Z,7.75
2022-11-17T10:01:17.562Z,9.00
2022-11-17T10:03:47.769Z,8.07
2022-11-17T10:06:19.624Z,7.88
2022-11-17T10:08:58.121Z,8.13
2022-11-17T10:11:32.862Z,7.97
2022-11-17T10:14:04.964Z,9.82
2022-11-17T10:16:33.993Z,8.52
2022-11-17T10:19:03.089Z,9.07
2022-11-17T10:21:31.438Z,8.10
2022-11-17T10:24:00.367Z,7.15
2022-11-17T10:26:28.119Z,8.60
2022-11-17T10:29:12.145Z,8.68
2022-11-17T10:31:45.893Z,7.53
2022-11-17T10:34:37.010Z,8.27
2022-11-17T10:37:27.582Z,8.45
2022-11-17T10:40:13.783Z,8.60
2022-11-17T10:42:45.597Z,9.35
2022-11-17T10:45:17.982Z,8.27
2022-11-17T10:47:46.969Z,8.00
2022-11-17T10:50:25.888Z,9.93
2022-11-17T10:52:55.140Z,8.18
2022-11-17T10:55:28.355Z,7.45
2022-11-17T10:58:00.211Z,8.98
2022-11-17T11:00:31.047Z,9.38
2022-11-17T11:03:21.708Z,8.25
2022-11-17T11:05:57.029Z,9.30
2022-11-17T11:08:31.117Z,8.73
2022-11-17T11:11:03.671Z,8.27
2022-11-17T11:13:36.852Z,9.20
2022-11-17T11:16:04.775Z,9.10
2022-11-17T11:18:33.645Z,9.82
2022-11-17T11:21:11.207Z,9.27
2022-11-17T11:23:49.136Z,8.95
2022-11-17T11:26:43.120Z,9.45
2022-11-17T11:29:24.457Z,8.30
2022-11-17T11:32:05.749Z,9.50
2022-11-17T11:34:58.457Z,9.30
2022-11-17T11:37:35.923Z,8.18
2022-11-17T11:40:15.351Z,8.23
2022-11-17T11:42:56.255Z,8.73
2022-11-17T11:45:40.867Z,9.15
2022-11-17T11:48:14.836Z,8.85
2022-11-17T11:50:54.092Z,8.93
2022-11-17T11:53:29.154Z,8.50
2022-11-17T11:56:08.523Z,8.57
2022-11-17T11:58:41.413Z,8.90
2022-11-17T12:01:12.021Z,9.57
2022-11-17T12:03:49.192Z,8.70
2022-11-17T12:06:41.343Z,9.05
2022-11-17T12:09:36.238Z,9.10
2022-11-17T12:12:09.493Z,8.50
2022-11-17T12:14:38.546Z,8.70
2022-11-17T12:17:17.110Z,8.60
2022-11-17T12:19:51.201Z,8.15
2022-11-17T12:22:45.441Z,9.15
2022-11-17T12:25:18.905Z,9.25
2022-11-17T12:27:49.614Z,9.00
2022-11-17T12:30:51.246Z,8.65
2022-11-17T12:33:19.026Z,8.68
2022-11-17T12:35:46.762Z,8.65
2022-11-17T12:38:41.641Z,8.85
2022-11-17T12:41:09.224Z,9.18
2022-11-17T12:43:37.123Z,8.90
2022-11-17T12:46:25.909Z,8.68
2022-11-17T12:49:00.548Z,8.68
2022-11-17T12:51:36.505Z,9.85
2022-11-17T12:54:20.708Z,10.07
2022-11-17T12:56:53.977Z,9.50
2022-11-17T12:59:51.841Z,9.55
2022-11-17T13:02:33.421Z,9.82
2022-11-17T13:05:04.483Z,9.70
2022-11-17T13:07:32.078Z,9.20
2022-11-17T13:10:02.650Z,9.35
2022-11-17T13:12:32.491Z,9.50
2022-11-17T13:15:02.562Z,10.27
2022-11-17T13:17:32.495Z,9.63
2022-11-17T13:20:02.744Z,10.05
2022-11-17T13:22:30.440Z,9.75
2022-11-17T13:24:59.743Z,9.57
2022-11-17T13:27:30.269Z,9.60
2022-11-17T13:30:14.146Z,9.82
2022-11-17T13:32:42.171Z,10.07
2022-11-17T13:35:20.944Z,9.82
2022-11-17T13:38:02.674Z,10.88
2022-11-17T13:40:31.637Z,9.85
2022-11-17T13:43:01.693Z,9.70
2022-11-17T13:45:29.521Z,11.02
2022-11-17T13:47:58.236Z,11.23
2022-11-17T13:50:37.276Z,10.30
2022-11-17T13:53:13.886Z,9.68
2022-11-17T13:55:45.809Z,10.50
2022-11-17T13:58:27.171Z,10.40
2022-11-17T14:00:57.568Z,10.50
2022-11-17T14:03:41.169Z,11.15
2022-11-17T14:06:10.397Z,10.93
2022-11-17T14:08:39.243Z,10.75
2022-11-17T14:11:14.423Z,10.32
2022-11-17T14:13:45.315Z,11.23
2022-11-17T14:16:22.311Z,11.77
2022-11-17T14:18:59.150Z,10.52
2022-11-17T14:21:27.325Z,9.80
2022-11-17T14:24:07.079Z,11.27
2022-11-17T14:26:34.920Z,10.65
2022-11-17T14:29:07.084Z,10.75
2022-11-17T14:31:34.732Z,10.23
2022-11-17T14:34:03.141Z,10.07
2022-11-17T14:36:33.081Z,9.88
2022-11-17T14:39:01.728Z,10.85
2022-11-17T14:41:29.838Z,10.73
2022-11-17T14:43:59.429Z,10.80
2022-11-17T14:46:30.976Z,10.50
2022-11-17T14:48:59.868Z,10.40
2022-11-17T14:51:27.538Z,10.02
2022-11-17T14:53:55.184Z,9.63
2022-11-17T14:56:24.746Z,10.45
2022-11-17T14:58:55.810Z,10.32
2022-11-17T15:01:25.744Z,9.95
2022-11-17T15:03:55.351Z,10.18
2022-11-17T15:06:23.616Z,10.68
2022-11-17T15:08:54.890Z,10.20
2022-11-17T15:11:24.354Z,10.40
2022-11-17T15:13:52.073Z,10.25
2022-11-17T15:16:20.012Z,9.95
2022-11-17T15:18:48.531Z,9.73
2022-11-17T15:21:17.836Z,9.90
2022-11-17T15:23:45.812Z,10.07
2022-11-17T15:26:15.442Z,9.30
2022-11-17T15:28:43.830Z,9.65
2022-11-17T15:31:13.788Z,10.18
2022-11-17T15:33:42.039Z,9.45
2022-11-17T15:36:11.945Z,9.77
2022-11-17T15:38:41.388Z,9.60
2022-11-17T15:41:10.560Z,8.32
2022-11-17T15:43:41.046Z,8.77
2022-11-17T15:46:10.672Z,9.18
2022-11-17T15:48:43.328Z,9.38
2022-11-17T15:51:12.768Z,9.20
2022-11-17T15:53:43.013Z,9.32
2022-11-17T15:56:13.176Z,8.75
2022-11-17T15:58:42.135Z,9.20
2022-11-17T16:01:14.575Z,9.00
2022-11-17T16:03:43.974Z,9.55
2022-11-17T16:06:13.001Z,8.60
2022-11-17T16:08:42.457Z,9.43
2022-11-17T16:11:11.076Z,9.98
2022-11-17T16:13:39.581Z,8.80
2022-11-17T16:16:08.935Z,8.88
2022-11-17T16:18:38.604Z,8.77
2022-11-17T16:21:08.515Z,10.60
2022-11-17T16:23:40.194Z,8.40
2022-11-17T16:26:10.392Z,8.98
2022-11-17T16:28:38.337Z,7.55
2022-11-17T16:31:14.144Z,9.45
2022-11-17T16:33:46.943Z,8.40
2022-11-17T16:36:14.752Z,8.60
2022-11-17T16:38:59.911Z,7.57
2022-11-17T16:41:32.157Z,8.40
2022-11-17T16:44:00.628Z,8.27
2022-11-17T16:46:30.270Z,7.68
2022-11-17T16:49:01.422Z,8.07
2022-11-17T16:51:30.617Z,8.07
2022-11-17T16:54:00.979Z,9.05
2022-11-17T16:56:30.203Z,8.88
2022-11-17T16:58:58.661Z,7.75
2022-11-17T17:01:28.417Z,8.32
2022-11-17T17:03:57.452Z,8.52
2022-11-17T17:06:26.176Z,8.15
2022-11-17T17:08:55.096Z,7.85
2022-11-17T17:11:22.736Z,7.55
2022-11-17T17:13:51.835Z,8.95
2022-11-17T17:16:21.040Z,8.05
2022-11-17T17:18:49.445Z,7.95
2022-11-17T17:21:19.084Z,8.20
2022-11-17T17:23:46.898Z,9.15
2022-11-17T17:26:17.447Z,8.80
2022-11-17T17:28:46.299Z,8.45
2022-11-17T17:31:21.080Z,8.65
2022-11-17T17:33:50.090Z,8.32
2022-11-17T17:36:19.314Z,9.00
2022-11-17T17:38:53.355Z,9.13
2022-11-17T17:41:24.173Z,8.57
2022-11-17T17:43:56.624Z,8.82
2022-11-17T17:46:26.282Z,9.68
2022-11-17T17:48:54.095Z,9.07
2022-11-17T17:51:24.934Z,9.43
2022-11-17T17:53:53.569Z,9.15
2022-11-17T17:56:22.502Z,8.50
2022-11-17T17:58:51.687Z,8.55
2022-11-17T18:01:21.107Z,8.57
2022-11-17T18:03:52.026Z,8.60
2022-11-17T18:06:22.016Z,8.57
2022-11-17T18:08:50.702Z,8.75
2022-11-17T18:11:21.224Z,8.88
2022-11-17T18:13:50.521Z,9.65
2022-11-17T18:16:21.278Z,8.80
2022-11-17T18:19:20.279Z,8.43
2022-11-17T18:21:53.259Z,9.38
2022-11-17T18:24:21.656Z,8.43
2022-11-17T18:26:49.441Z,8.77
2022-11-17T18:29:19.471Z,9.35
2022-11-17T18:31:52.174Z,9.07
2022-11-17T18:34:23.002Z,9.10
2022-11-17T18:36:51.892Z,8.70
2022-11-17T18:39:21.480Z,9.00
2022-11-17T18:41:49.260Z,10.15
2022-11-17T18:44:19.353Z,9.00
2022-11-17T18:46:47.503Z,9.27
2022-11-17T18:49:15.541Z,9.43
2022-11-17T18:51:44.793Z,10.65
2022-11-17T18:54:12.903Z,8.95
2022-11-17T18:56:40.856Z,9.57
2022-11-17T18:59:11.448Z,9.88
2022-11-17T19:01:40.760Z,9.13
2022-11-17T19:04:08.664Z,9.85
2022-11-17T19:06:37.204Z,9.27
2022-11-17T19:09:06.802Z,10.20
2022-11-17T19:11:34.940Z,9.98
2022-11-17T19:14:04.097Z,9.98
2022-11-17T19:16:32.853Z,10.00
2022-11-17T19:19:00.814Z,9.43
2022-11-17T19:21:30.308Z,9.85
2022-11-17T19:24:00.306Z,10.10
2022-11-17T19:26:30.937Z,10.60
2022-11-17T19:29:16.240Z,9.45
2022-11-17T19:31:45.409Z,9.60
2022-11-17T19:34:13.565Z,9.05
2022-11-17T19:36:41.166Z,8.88
2022-11-17T19:39:08.889Z,8.93
2022-11-17T19:41:39.641Z,8.40
2022-11-17T19:44:10.683Z,8.48
2022-11-17T19:46:39.153Z,9.25
2022-11-17T19:49:08.684Z,8.75
2022-11-17T19:51:37.917Z,7.72
2022-11-17T19:54:07.905Z,8.77
2022-11-17T19:56:36.688Z,9.05
2022-11-17T19:59:06.309Z,7.82
2022-11-17T20:01:43.019Z,8.45
2022-11-17T20:04:11.228Z,8.82
2022-11-17T20:06:46.039Z,8.57
2022-11-17T20:09:15.381Z,7.82
2022-11-17T20:11:44.096Z,7.55
2022-11-17T20:14:14.339Z,8.88
2022-11-17T20:16:42.470Z,8.15
2022-11-17T20:19:10.619Z,7.95
2022-11-17T20:21:38.532Z,7.35
2022-11-17T20:24:06.725Z,7.57
2022-11-17T20:26:36.041Z,7.20
2022-11-17T20:29:03.794Z,6.75
2022-11-17T20:31:35.154Z,7.22
2022-11-17T20:34:05.198Z,7.55
2022-11-17T20:36:34.251Z,7.68
2022-11-17T20:39:03.943Z,7.18
2022-11-17T20:41:32.421Z,7.30
2022-11-17T20:44:01.817Z,6.70
2022-11-17T20:46:36.103Z,7.03
2022-11-17T20:49:03.782Z,7.35
2022-11-17T20:51:32.301Z,7.05
2022-11-17T20:54:04.050Z,8.15
2022-11-17T20:56:31.677Z,6.35
2022-11-17T20:58:59.408Z,8.20
2022-11-17T21:01:27.531Z,6.93
2022-11-17T21:03:56.673Z,7.88
2022-11-17T21:06:24.588Z,7.82
2022-11-17T21:08:52.802Z,7.57
2022-11-17T21:11:44.304Z,7.35
2022-11-17T21:14:13.663Z,7.30
2022-11-17T21:16:44.376Z,6.43
2022-11-17T21:19:14.337Z,7.15
2022-11-17T21:21:42.295Z,7.13
2022-11-17T21:24:11.189Z,7.97
2022-11-17T21:26:41.484Z,7.35
2022-11-17T21:29:09.375Z,7.40
2022-11-17T21:31:37.157Z,7.75
2022-11-17T21:34:07.117Z,7.88
2022-11-17T21:36:36.508Z,9.93
2022-11-17T21:39:05.319Z,8.43
2022-11-17T21:41:35.510Z,8.52
2022-11-17T21:44:03.973Z,7.80
2022-11-17T21:46:33.934Z,7.22
2022-11-17T21:49:02.106Z,7.60
2022-11-17T21:51:33.163Z,7.63
2022-11-17T21:54:04.373Z,7.85
2022-11-17T21:56:32.500Z,7.88
2022-11-17T21:59:01.926Z,7.78
2022-11-17T22:01:29.808Z,8.55
2022-11-17T22:03:57.664Z,8.05
2022-11-17T22:06:26.518Z,8.68
2022-11-17T22:08:55.180Z,8.43
2022-11-17T22:11:36.536Z,8.02
2022-11-17T22:14:09.588Z,8.80
2022-11-17T22:16:38.957Z,8.63
2022-11-17T22:19:07.947Z,8.43
2022-11-17T22:21:37.209Z,9.07
2022-11-17T22:24:05.649Z,8.85
2022-11-17T22:26:35.866Z,9.30
2022-11-17T22:29:03.708Z,9.80
2022-11-17T22:31:31.364Z,9.77
2022-11-17T22:33:58.983Z,9.52
2022-11-17T22:36:26.601Z,8.77
2022-11-17T22:38:54.304Z,9.35
2022-11-17T22:41:23.381Z,8.68
2022-11-17T22:43:53.146Z,9.85
2022-11-17T22:46:22.287Z,9.13
2022-11-17T22:48:50.270Z,9.82
2022-11-17T22:51:38.474Z,9.82
2022-11-17T22:54:07.724Z,9.88
2022-11-17T22:56:35.792Z,9.27
2022-11-17T22:59:04.931Z,9.98
2022-11-17T23:01:32.812Z,9.70
2022-11-17T23:04:00.647Z,9.23
2022-11-17T23:06:28.392Z,8.80
2022-11-17T23:08:57.386Z,9.82
2022-11-17T23:11:41.087Z,8.90
2022-11-17T23:14:12.105Z,10.07
2022-11-17T23:16:40.338Z,9.77
2022-11-17T23:19:09.456Z,9.95
2022-11-17T23:21:37.280Z,10.25
2022-11-17T23:24:05.300Z,9.80
2022-11-17T23:26:32.908Z,10.00
2022-11-17T23:29:00.586Z,10.02
2022-11-17T23:31:30.254Z,8.52
2022-11-17T23:33:57.958Z,9.65
2022-11-17T23:36:25.810Z,10.43
2022-11-17T23:38:56.004Z,10.20
2022-11-17T23:41:23.903Z,9.15
2022-11-17T23:43:52.923Z,10.02
2022-11-17T23:46:22.610Z,11.43
2022-11-17T23:48:51.595Z,10.60
2022-11-17T23:51:21.421Z,11.60
2022-11-17T23:53:49.697Z,10.60
2022-11-17T23:56:19.265Z,11.02
2022-11-17T23:58:47.281Z,10.38
